Time;durP1;ratioP1;P1;durP2;ratioP2;P2;SDS_P1;SDS_P2;PMS_P1;PMS_P2;Temp;Humidity;BMP_temperature;BMP_pressure;BME280_temperature;BME280_humidity;BME280_pressure;Samples;Min_cycle;Max_cycle;Signal;HPM_P1;HPM_P2
2021/06/01 00:00:13;;;;;;;5.70;5.30;;;;;;;7.85;89.27;98354.00;4983649;28;20201;-70
2021/06/01 00:02:41;;;;;;;5.53;5.23;;;;;;;7.74;90.07;98352.31;4983968;28;20681;-71
2021/06/01 00:05:10;;;;;;;5.40;5.10;;;;;;;7.65;90.38;98356.59;4982078;28;20596;-71
2021/06/01 00:07:37;;;;;;;5.33;5.00;;;;;;;7.45;91.21;98355.72;4982896;28;20659;-71
2021/06/01 00:10:08;;;;;;;5.57;5.27;;;;;;;7.41;92.01;98352.56;4983013;28;20548;-71
2021/06/01 00:12:35;;;;;;;5.70;5.30;;;;;;;7.41;91.99;98356.97;4983574;28;20211;-71
2021/06/01 00:15:03;;;;;;;6.27;5.53;;;;;;;7.50;91.66;98343.81;4922067;28;20633;-70
2021/06/01 00:17:31;;;;;;;6.00;5.50;;;;;;;7.38;92.71;98344.88;4983246;28;20213;-71
2021/06/01 00:19:59;;;;;;;6.23;5.77;;;;;;;7.33;93.25;98345.31;4983305;28;20469;-71
2021/06/01 00:22:27;;;;;;;5.77;5.27;;;;;;;7.42;91.63;98340.19;4984281;28;20213;-71
2021/06/01 00:24:55;;;;;;;5.73;5.33;;;;;;;7.49;91.54;98338.66;4981218;28;20773;-70
2021/06/01 00:27:23;;;;;;;6.20;5.60;;;;;;;7.28;92.31;98341.41;4980640;28;20210;-70
2021/06/01 00:29:50;;;;;;;5.47;5.07;;;;;;;7.29;92.59;98343.06;4983564;28;20213;-70
2021/06/01 00:32:18;;;;;;;6.23;5.73;;;;;;;7.27;92.42;98339.72;4983038;28;20457;-69
2021/06/01 00:34:45;;;;;;;6.13;5.63;;;;;;;7.04;93.58;98337.31;4983057;28;20680;-71
2021/06/01 00:37:13;;;;;;;6.23;5.83;;;;;;;7.04;94.17;98346.03;4983599;28;20205;-68
2021/06/01 00:39:42;;;;;;;6.10;5.70;;;;;;;6.98;94.98;98345.72;4982728;28;20244;-71
2021/06/01 00:42:09;;;;;;;6.67;6.27;;;;;;;6.92;95.84;98341.84;4981693;28;20359;-70
2021/06/01 00:44:37;;;;;;;6.63;6.13;;;;;;;6.95;95.59;98344.22;4982558;28;20233;-71
2021/06/01 00:47:04;;;;;;;6.13;5.73;;;;;;;6.87;95.76;98344.84;4983256;28;20604;-71
2021/06/01 00:49:32;;;;;;;7.10;6.37;;;;;;;6.89;96.18;98345.56;4982783;28;20827;-70
2021/06/01 00:51:59;;;;;;;6.00;5.47;;;;;;;6.93;95.62;98338.22;4982454;28;20209;-71
2021/06/01 00:54:27;;;;;;;7.43;6.00;;;;;;;6.70;96.53;98343.66;4982596;28;20230;-70
2021/06/01 00:56:56;;;;;;;6.73;6.23;;;;;;;6.65;97.33;98340.59;4982056;28;20206;-70
2021/06/01 00:59:23;;;;;;;6.40;5.93;;;;;;;6.71;96.54;98350.59;4982439;28;20583;-71
2021/06/01 01:01:51;;;;;;;6.20;5.80;;;;;;;6.77;96.06;98344.81;4982562;28;20709;-71
2021/06/01 01:04:18;;;;;;;6.90;6.33;;;;;;;6.70;96.49;98338.41;4981954;28;20698;-70
2021/06/01 01:06:56;;;;;;;6.77;6.27;;;;;;;6.72;97.01;98340.91;4982807;28;20470;-70
2021/06/01 01:09:26;;;;;;;6.63;6.17;;;;;;;6.54;97.55;98345.94;4978596;28;20193;-70
2021/06/01 01:12:00;;;;;;;6.40;5.90;;;;;;;6.37;98.47;98338.50;4982854;28;20220;-70
2021/06/01 01:14:30;;;;;;;6.73;6.23;;;;;;;6.32;99.10;98348.56;4981297;28;20225;-71
2021/06/01 01:17:00;;;;;;;6.77;6.27;;;;;;;6.26;100.00;98343.84;4981020;28;20233;-70
2021/06/01 01:19:47;;;;;;;6.20;5.80;;;;;;;6.29;100.00;98348.84;4981101;28;20683;-70
2021/06/01 01:22:16;;;;;;;6.97;6.40;;;;;;;6.22;100.00;98345.03;4973097;28;20213;-68
2021/06/01 01:24:51;;;;;;;6.83;6.33;;;;;;;6.27;100.00;98344.66;4979801;28;20231;-70
2021/06/01 01:27:27;;;;;;;7.40;6.80;;;;;;;6.14;100.00;98347.47;4981557;28;20205;-70
2021/06/01 01:29:59;;;;;;;6.77;6.17;;;;;;;6.17;100.00;98348.06;4979619;28;20217;-71
2021/06/01 01:32:34;;;;;;;6.50;6.07;;;;;;;6.20;100.00;98346.94;4981909;28;20202;-71
2021/06/01 01:35:04;;;;;;;7.47;6.53;;;;;;;6.09;99.97;98353.13;4981342;28;20248;-70
2021/06/01 01:37:33;;;;;;;6.77;6.03;;;;;;;6.33;98.71;98347.63;4980540;28;20213;-68
2021/06/01 01:40:03;;;;;;;7.30;6.60;;;;;;;6.34;97.08;98341.38;4980072;28;20229;-70
2021/06/01 01:42:39;;;;;;;7.53;6.90;;;;;;;6.32;97.73;98343.31;4980842;28;20285;-69
2021/06/01 01:45:09;;;;;;;6.20;5.77;;;;;;;6.14;98.86;98342.19;4981247;28;20221;-72
2021/06/01 01:50:27;;;;;;;6.90;6.20;;;;;;;6.15;99.40;98334.19;4981956;28;20697;-71
2021/06/01 01:52:55;;;;;;;6.03;5.53;;;;;;;6.11;99.28;98337.19;4977413;28;20420;-71
2021/06/01 01:55:23;;;;;;;7.33;6.73;;;;;;;6.19;98.38;98338.22;4980708;28;20225;-70
2021/06/01 01:57:51;;;;;;;6.47;5.93;;;;;;;6.19;97.56;98345.28;4982292;28;20229;-71
2021/06/01 02:00:19;;;;;;;6.40;5.90;;;;;;;5.99;98.63;98339.84;4979946;28;20252;-70
2021/06/01 02:02:48;;;;;;;7.00;6.50;;;;;;;5.85;100.00;98340.13;4981543;28;20206;-70
2021/06/01 02:05:19;;;;;;;6.93;6.23;;;;;;;5.80;100.00;98341.34;4979290;28;20222;-71
2021/06/01 02:07:48;;;;;;;6.50;6.00;;;;;;;5.78;100.00;98339.81;4979956;28;20216;-70
2021/06/01 02:10:15;;;;;;;6.87;6.37;;;;;;;5.62;100.00;98340.22;4981661;28;20213;-70
2021/06/01 02:12:43;;;;;;;8.40;7.70;;;;;;;5.62;100.00;98334.97;4982020;28;20616;-71
2021/06/01 02:15:11;;;;;;;7.03;6.53;;;;;;;5.72;100.00;98332.44;4980596;28;20218;-70
2021/06/01 02:17:39;;;;;;;7.47;6.73;;;;;;;5.70;100.00;98335.16;4979942;28;20257;-70
2021/06/01 02:20:08;;;;;;;7.23;6.73;;;;;;;5.53;100.00;98327.81;4980800;28;20523;-71
2021/06/01 02:25:32;;;;;;;7.23;6.67;;;;;;;5.50;100.00;98334.16;4979200;28;20233;-70
2021/06/01 02:28:08;;;;;;;6.90;6.27;;;;;;;5.49;100.00;98333.34;4981774;28;20209;-69
2021/06/01 02:30:39;;;;;;;7.07;6.47;;;;;;;5.40;100.00;98334.03;4982487;28;20291;-70
2021/06/01 02:33:07;;;;;;;9.33;6.43;;;;;;;5.40;100.00;98339.31;4980699;28;20225;-70
2021/06/01 02:35:38;;;;;;;6.97;6.47;;;;;;;5.32;100.00;98336.47;4981522;28;20214;-71
2021/06/01 02:38:07;;;;;;;7.07;6.57;;;;;;;5.27;100.00;98334.19;4979743;28;20240;-71
2021/06/01 02:40:37;;;;;;;6.47;6.10;;;;;;;5.43;100.00;98328.53;4981107;28;20878;-68
2021/06/01 02:43:06;;;;;;;7.07;6.47;;;;;;;5.24;100.00;98334.44;4981973;28;20213;-71
2021/06/01 02:45:36;;;;;;;7.10;6.50;;;;;;;5.22;100.00;98331.09;4980781;28;20465;-69
2021/06/01 02:48:05;;;;;;;7.17;6.57;;;;;;;5.17;100.00;98335.88;4981205;28;20206;-70
2021/06/01 02:50:33;;;;;;;6.53;5.93;;;;;;;5.17;100.00;98334.09;4983278;28;20214;-68
2021/06/01 02:53:02;;;;;;;6.80;6.30;;;;;;;5.18;100.00;98330.53;4983437;28;20206;-71
2021/06/01 02:55:30;;;;;;;9.13;6.90;;;;;;;5.02;100.00;98336.13;4984773;28;20210;-71
2021/06/01 02:57:59;;;;;;;7.00;6.50;;;;;;;5.05;100.00;98335.91;4982785;28;20241;-70
2021/06/01 03:00:26;;;;;;;7.13;6.63;;;;;;;5.13;100.00;98326.56;4983595;28;20486;-69
2021/06/01 03:02:54;;;;;;;6.97;6.37;;;;;;;4.98;100.00;98329.47;4984939;28;20206;-71
2021/06/01 03:05:21;;;;;;;7.53;6.83;;;;;;;4.96;100.00;98330.53;4983712;28;20605;-70
2021/06/01 03:07:52;;;;;;;6.93;6.43;;;;;;;5.00;100.00;98329.31;4985077;28;20209;-70
2021/06/01 03:10:21;;;;;;;7.60;6.67;;;;;;;4.88;100.00;98321.47;4983692;28;20202;-70
2021/06/01 03:12:50;;;;;;;7.30;6.80;;;;;;;5.02;100.00;98317.75;4982943;28;20205;-70
2021/06/01 03:15:21;;;;;;;6.73;6.20;;;;;;;5.03;100.00;98319.41;4983395;28;20485;-70
2021/06/01 03:17:49;;;;;;;7.20;6.70;;;;;;;4.99;100.00;98317.16;4984687;28;20618;-71
2021/06/01 03:20:16;;;;;;;6.87;6.37;;;;;;;4.88;100.00;98324.09;4984220;28;20737;-70
2021/06/01 03:22:44;;;;;;;7.63;6.03;;;;;;;4.86;100.00;98320.75;4984669;28;20373;-71
2021/06/01 03:25:13;;;;;;;6.67;6.17;;;;;;;4.82;100.00;98324.56;4983543;28;20233;-70
2021/06/01 03:27:40;;;;;;;6.73;6.27;;;;;;;4.88;100.00;98328.47;4981174;28;20598;-71
2021/06/01 03:30:09;;;;;;;6.50;6.10;;;;;;;4.85;100.00;98326.09;4982828;28;20198;-70
2021/06/01 03:32:39;;;;;;;7.30;6.70;;;;;;;4.79;100.00;98330.06;4984093;28;20610;-71
2021/06/01 03:35:08;;;;;;;7.27;6.73;;;;;;;4.74;100.00;98340.09;4983933;28;20231;-70
2021/06/01 03:37:35;;;;;;;6.97;6.47;;;;;;;4.93;100.00;98335.06;4983283;28;20589;-71
2021/06/01 03:40:04;;;;;;;6.93;6.40;;;;;;;4.99;100.00;98325.88;4979886;28;20928;-71
2021/06/01 03:42:32;;;;;;;6.53;6.07;;;;;;;5.01;100.00;98337.09;4983170;28;20213;-70
2021/06/01 03:45:00;;;;;;;6.77;6.37;;;;;;;4.99;100.00;98331.13;4983655;28;20233;-70
2021/06/01 03:47:27;;;;;;;7.37;6.60;;;;;;;5.13;100.00;98337.94;4983130;28;20586;-70
2021/06/01 03:49:57;;;;;;;7.03;6.50;;;;;;;5.21;100.00;98330.28;4982001;28;20210;-71
2021/06/01 03:52:24;;;;;;;7.23;6.63;;;;;;;5.30;100.00;98338.38;4981171;28;20206;-71
2021/06/01 03:54:52;;;;;;;7.03;6.53;;;;;;;5.30;100.00;98341.84;4982457;28;20233;-71
2021/06/01 03:57:19;;;;;;;7.37;6.70;;;;;;;5.24;100.00;98339.69;4984086;28;20571;-71
2021/06/01 03:59:47;;;;;;;7.73;7.03;;;;;;;5.33;100.00;98338.13;4982987;28;20233;-70
2021/06/01 04:02:14;;;;;;;6.33;5.83;;;;;;;5.40;100.00;98336.69;4983579;28;20237;-68
2021/06/01 04:04:42;;;;;;;7.00;6.40;;;;;;;5.44;100.00;98334.66;4983500;28;20915;-71
2021/06/01 04:07:11;;;;;;;7.10;6.60;;;;;;;5.54;98.92;98343.47;4982333;28;20205;-71
2021/06/01 04:09:39;;;;;;;6.80;6.30;;;;;;;5.43;100.00;98344.31;4980592;28;20202;-70
2021/06/01 04:12:08;;;;;;;6.77;6.27;;;;;;;5.47;99.80;98340.47;4983753;28;20213;-68
2021/06/01 04:14:36;;;;;;;6.07;5.67;;;;;;;5.49;99.53;98349.09;4983101;28;20285;-70
2021/06/01 04:17:04;;;;;;;6.60;5.93;;;;;;;5.78;97.64;98339.81;4983349;28;20209;-70
2021/06/01 04:19:32;;;;;;;7.13;6.50;;;;;;;5.70;97.32;98343.06;4982524;28;20209;-71
2021/06/01 04:22:00;;;;;;;6.97;6.40;;;;;;;5.90;96.53;98345.88;4982595;28;20210;-69
2021/06/01 04:24:29;;;;;;;7.17;6.53;;;;;;;5.96;96.14;98337.47;4981475;28;20221;-71
2021/06/01 04:26:57;;;;;;;7.33;6.60;;;;;;;5.88;97.42;98343.34;4982518;28;20205;-70
2021/06/01 04:29:25;;;;;;;7.57;6.97;;;;;;;5.85;98.65;98343.63;4982919;28;20217;-69
2021/06/01 04:31:52;;;;;;;7.40;6.80;;;;;;;5.87;99.44;98346.09;4981168;28;20209;-69
2021/06/01 04:34:20;;;;;;;6.47;6.07;;;;;;;5.94;99.33;98342.03;4982330;28;20567;-71
2021/06/01 04:36:47;;;;;;;7.13;6.63;;;;;;;6.18;97.09;98339.19;4981222;28;20451;-69
2021/06/01 04:39:15;;;;;;;7.03;6.47;;;;;;;6.14;97.38;98332.53;4983399;28;20630;-70
2021/06/01 04:41:44;;;;;;;7.27;6.53;;;;;;;6.14;97.57;98336.94;4981554;28;20227;-71
2021/06/01 04:44:11;;;;;;;6.73;6.13;;;;;;;6.49;93.98;98327.88;4981547;28;20233;-70
2021/06/01 04:46:39;;;;;;;7.73;6.73;;;;;;;6.53;93.43;98326.66;4981188;28;20506;-70
2021/06/01 04:49:06;;;;;;;8.17;6.50;;;;;;;6.47;95.21;98330.66;4979565;28;20738;-69
2021/06/01 04:51:34;;;;;;;7.57;6.97;;;;;;;6.47;95.74;98332.44;4980522;28;20216;-69
2021/06/01 04:54:01;;;;;;;7.73;6.77;;;;;;;6.60;94.51;98334.88;4981057;28;20226;-70
2021/06/01 04:56:29;;;;;;;8.60;7.90;;;;;;;6.63;95.31;98327.56;4981043;28;20574;-70
2021/06/01 04:58:58;;;;;;;8.13;7.37;;;;;;;6.91;92.14;98327.81;4981457;28;20209;-69
2021/06/01 05:01:26;;;;;;;8.70;8.00;;;;;;;6.96;92.21;98327.44;4981728;28;20236;-70
2021/06/01 05:03:53;;;;;;;8.20;7.50;;;;;;;7.04;92.83;98330.22;4981106;28;20237;-67
2021/06/01 05:06:21;;;;;;;7.57;7.00;;;;;;;7.29;90.93;98322.81;4980442;28;20706;-69
2021/06/01 05:08:49;;;;;;;8.93;8.13;;;;;;;7.26;92.39;98322.25;4982795;28;20454;-70
2021/06/01 05:11:17;;;;;;;9.50;8.50;;;;;;;7.50;88.57;98319.25;4982261;28;20458;-69
2021/06/01 05:13:44;;;;;;;9.60;8.67;;;;;;;7.65;87.28;98323.16;4982004;28;20718;-70
2021/06/01 05:16:14;;;;;;;9.10;8.20;;;;;;;7.72;87.45;98325.25;4982454;28;20209;-70
2021/06/01 05:18:42;;;;;;;8.03;7.33;;;;;;;7.73;87.88;98326.91;4979486;28;20317;-69
2021/06/01 05:21:09;;;;;;;7.60;6.90;;;;;;;7.98;86.54;98328.16;4977630;28;20225;-69
2021/06/01 05:23:36;;;;;;;7.40;6.90;;;;;;;8.00;86.38;98331.50;4980716;28;20240;-70
2021/06/01 05:26:04;;;;;;;7.77;7.07;;;;;;;8.19;86.22;98324.56;4980133;28;20682;-70
2021/06/01 05:28:32;;;;;;;8.27;7.17;;;;;;;8.35;85.88;98330.09;4982471;28;20216;-69
2021/06/01 05:31:06;;;;;;;10.63;7.33;;;;;;;8.56;84.85;98334.41;4981869;28;20205;-70
2021/06/01 05:33:36;;;;;;;7.73;7.13;;;;;;;8.79;83.26;98332.25;4978090;28;20248;-69
2021/06/01 05:36:05;;;;;;;7.83;7.23;;;;;;;8.79;83.59;98336.69;4982045;28;20220;-70
2021/06/01 05:38:33;;;;;;;8.07;7.50;;;;;;;8.91;81.83;98330.25;4981994;28;20217;-70
2021/06/01 05:41:01;;;;;;;8.17;7.37;;;;;;;8.98;81.65;98322.56;4981933;28;20240;-70
2021/06/01 05:43:29;;;;;;;7.87;7.17;;;;;;;9.17;80.91;98321.63;4981325;28;20240;-70
2021/06/01 05:45:57;;;;;;;7.60;6.97;;;;;;;9.38;78.64;98329.31;4981832;28;20708;-69
2021/06/01 05:48:24;;;;;;;8.60;7.10;;;;;;;9.76;75.35;98328.38;4982196;28;20208;-69
2021/06/01 05:50:55;;;;;;;8.20;7.60;;;;;;;9.84;75.82;98333.75;4979930;28;20574;-69
2021/06/01 05:53:24;;;;;;;7.53;6.83;;;;;;;10.11;73.79;98330.22;4980046;28;20201;-70
2021/06/01 05:55:52;;;;;;;7.33;6.80;;;;;;;10.28;72.68;98327.69;4979050;28;20209;-69
2021/06/01 05:58:20;;;;;;;7.17;6.67;;;;;;;10.36;72.02;98322.44;4982435;28;20206;-70
2021/06/01 06:00:48;;;;;;;7.57;6.90;;;;;;;10.45;71.79;98317.25;4981731;28;20250;-68
2021/06/01 06:03:16;;;;;;;7.93;7.13;;;;;;;10.63;70.25;98318.00;4982280;28;20213;-70
2021/06/01 06:05:44;;;;;;;7.87;7.37;;;;;;;10.69;70.48;98319.22;4979748;28;20209;-69
2021/06/01 06:08:15;;;;;;;7.17;6.60;;;;;;;10.84;69.58;98322.13;4979302;28;20678;-70
2021/06/01 06:10:43;;;;;;;7.33;6.73;;;;;;;11.06;67.71;98317.25;4979823;28;20194;-69
2021/06/01 06:13:11;;;;;;;7.40;6.80;;;;;;;11.11;68.18;98315.78;4979642;28;20650;-68
2021/06/01 06:15:39;;;;;;;6.83;6.27;;;;;;;11.10;67.93;98318.59;4980375;28;20567;-70
2021/06/01 06:18:19;;;;;;;7.13;6.47;;;;;;;11.28;66.58;98319.34;4980143;28;20216;-68
2021/06/01 06:20:46;;;;;;;6.67;6.17;;;;;;;11.38;65.96;98316.56;4978714;28;20519;-69
2021/06/01 06:23:15;;;;;;;6.67;5.97;;;;;;;11.39;65.38;98315.56;4978103;28;20206;-67
2021/06/01 06:25:43;;;;;;;8.53;6.07;;;;;;;11.50;64.68;98305.63;4983498;28;20221;-69
2021/06/01 06:28:10;;;;;;;6.40;5.90;;;;;;;11.88;62.82;98319.28;4983406;28;20205;-70
2021/06/01 06:30:37;;;;;;;6.20;5.70;;;;;;;12.10;62.23;98320.50;4981512;28;20206;-69
2021/06/01 06:33:05;;;;;;;6.57;6.03;;;;;;;12.32;61.21;98320.00;4983335;28;20202;-67
2021/06/01 06:35:33;;;;;;;7.40;6.47;;;;;;;12.20;62.42;98316.84;4985265;28;20209;-70
2021/06/01 06:38:00;;;;;;;8.73;6.40;;;;;;;12.52;60.27;98321.31;4985436;28;20339;-69
2021/06/01 06:40:29;;;;;;;7.57;6.73;;;;;;;12.51;60.94;98316.16;4984881;28;20233;-70
2021/06/01 06:42:57;;;;;;;8.07;6.37;;;;;;;12.78;60.65;98316.78;4984472;28;20352;-70
2021/06/01 06:45:25;;;;;;;10.83;6.53;;;;;;;12.85;59.59;98321.22;4982966;28;20228;-70
2021/06/01 06:48:05;;;;;;;7.80;6.27;;;;;;;12.93;59.51;98311.59;4983419;28;20406;-67
2021/06/01 06:50:34;;;;;;;7.70;6.90;;;;;;;13.11;57.73;98309.50;4983175;28;20240;-67
2021/06/01 06:53:03;;;;;;;7.40;6.70;;;;;;;13.20;58.05;98302.31;4983011;28;20222;-69
2021/06/01 06:55:32;;;;;;;8.93;6.20;;;;;;;13.23;56.60;98304.63;4983574;28;20233;-69
2021/06/01 06:57:59;;;;;;;6.47;5.80;;;;;;;13.44;57.25;98308.53;4983819;28;20220;-68
2021/06/01 07:00:27;;;;;;;6.73;5.43;;;;;;;13.55;57.28;98305.50;4983947;28;20214;-67
2021/06/01 07:02:54;;;;;;;5.73;5.30;;;;;;;13.84;56.29;98303.16;4983642;28;20210;-66
2021/06/01 07:05:23;;;;;;;8.40;5.47;;;;;;;13.86;56.70;98301.13;4978661;28;20316;-68
2021/06/01 07:07:53;;;;;;;6.37;4.80;;;;;;;14.04;55.46;98311.50;4981661;28;20220;-67
2021/06/01 07:10:22;;;;;;;11.10;5.50;;;;;;;14.15;54.54;98305.72;4983206;28;20280;-69
2021/06/01 07:12:51;;;;;;;6.53;5.77;;;;;;;14.52;52.94;98308.59;4982916;28;20206;-66
2021/06/01 07:15:46;;;;;;;9.00;5.87;;;;;;;14.83;52.47;98310.31;4983386;28;20224;-67
2021/06/01 07:18:15;;;;;;;9.67;5.67;;;;;;;14.80;52.44;98304.50;4968484;28;20635;-68
2021/06/01 07:20:44;;;;;;;5.20;4.73;;;;;;;14.85;51.35;98297.59;4980938;28;20623;-67
2021/06/01 07:23:13;;;;;;;7.70;5.53;;;;;;;14.99;50.91;98303.13;4984499;28;20582;-64
2021/06/01 07:25:42;;;;;;;9.20;4.50;;;;;;;14.76;52.27;98296.88;4983402;28;20444;-66
2021/06/01 07:28:16;;;;;;;6.83;4.50;;;;;;;14.98;51.66;98291.63;4979895;28;20553;-66
2021/06/01 07:30:44;;;;;;;8.30;5.13;;;;;;;14.95;51.56;98297.31;4984001;28;20655;-66
2021/06/01 07:33:12;;;;;;;5.10;4.20;;;;;;;14.99;52.37;98290.63;4982620;28;20209;-66
2021/06/01 07:35:39;;;;;;;4.67;4.30;;;;;;;15.10;52.00;98288.47;4979084;28;20241;-68
2021/06/01 07:38:10;;;;;;;4.83;4.47;;;;;;;15.18;51.54;98289.22;4979316;28;20233;-68
2021/06/01 07:40:37;;;;;;;4.23;3.83;;;;;;;15.72;50.23;98283.63;4982167;28;20594;-66
2021/06/01 07:43:05;;;;;;;4.83;3.90;;;;;;;15.82;48.22;98288.66;4982456;28;20225;-69
2021/06/01 07:45:34;;;;;;;6.63;4.53;;;;;;;16.14;47.25;98279.31;4981678;28;20260;-67
2021/06/01 07:48:01;;;;;;;5.23;4.83;;;;;;;16.08;48.06;98280.06;4983196;28;20205;-69
2021/06/01 07:50:29;;;;;;;4.53;4.13;;;;;;;16.26;47.99;98279.59;4982579;28;20682;-66
2021/06/01 07:52:56;;;;;;;7.70;4.67;;;;;;;16.49;48.27;98273.19;4982228;28;20413;-70
2021/06/01 07:55:24;;;;;;;7.67;4.27;;;;;;;16.66;47.34;98275.56;4979348;28;20236;-70
2021/06/01 07:57:51;;;;;;;4.73;3.73;;;;;;;16.61;46.83;98273.50;4978197;28;20214;-67
2021/06/01 08:00:21;;;;;;;6.87;4.33;;;;;;;16.77;45.51;98273.16;4981289;28;20287;-69
2021/06/01 08:02:50;;;;;;;6.00;4.00;;;;;;;16.89;45.45;98272.63;4982367;28;20229;-69
2021/06/01 08:05:20;;;;;;;4.23;3.87;;;;;;;17.06;45.34;98265.13;4983453;28;20634;-70
2021/06/01 08:07:49;;;;;;;4.03;3.73;;;;;;;16.92;44.06;98274.91;4980186;28;20305;-70
2021/06/01 08:10:21;;;;;;;4.13;3.83;;;;;;;17.12;44.70;98266.16;4983562;28;20480;-69
2021/06/01 08:12:49;;;;;;;3.70;3.40;;;;;;;17.42;44.05;98266.66;4983892;28;20206;-66
2021/06/01 08:15:21;;;;;;;4.30;3.80;;;;;;;17.54;43.50;98266.91;4983654;28;20540;-69
2021/06/01 08:17:52;;;;;;;5.30;3.40;;;;;;;17.61;42.54;98256.22;4983514;28;20206;-67
2021/06/01 08:20:29;;;;;;;3.50;3.30;;;;;;;17.61;40.50;98265.06;4980846;28;20220;-72
2021/06/01 08:22:56;;;;;;;3.33;3.10;;;;;;;17.78;40.34;98262.00;4983033;28;20213;-70
2021/06/01 08:25:25;;;;;;;2.80;2.60;;;;;;;18.23;35.52;98256.09;4981732;28;20228;-70
2021/06/01 08:27:53;;;;;;;2.70;2.50;;;;;;;18.28;34.97;98253.63;4983404;28;20201;-70
2021/06/01 08:30:21;;;;;;;3.00;2.90;;;;;;;18.25;36.14;98253.19;4982425;28;20638;-70
2021/06/01 08:32:50;;;;;;;5.53;2.80;;;;;;;18.47;36.08;98259.97;4982612;28;20202;-70
2021/06/01 08:35:19;;;;;;;3.60;3.40;;;;;;;18.49;36.72;98252.56;4982126;28;20396;-68
2021/06/01 08:37:46;;;;;;;3.83;3.53;;;;;;;18.39;36.24;98254.84;4980936;28;20393;-69
2021/06/01 08:40:15;;;;;;;3.37;2.70;;;;;;;18.39;36.23;98246.78;4978820;28;20307;-70
2021/06/01 08:42:43;;;;;;;3.27;2.90;;;;;;;18.57;34.67;98243.47;4980210;28;20435;-66
2021/06/01 08:45:12;;;;;;;3.07;2.87;;;;;;;18.69;35.64;98243.63;4981083;28;20416;-67
2021/06/01 08:47:41;;;;;;;3.70;3.07;;;;;;;18.75;36.28;98242.78;4980819;28;20205;-70
2021/06/01 08:50:11;;;;;;;3.27;3.03;;;;;;;18.99;36.49;98240.47;4979819;28;20213;-72
2021/06/01 08:52:40;;;;;;;2.57;2.47;;;;;;;19.09;35.53;98243.50;4981067;28;20213;-72
2021/06/01 08:55:10;;;;;;;2.73;2.53;;;;;;;19.26;35.35;98242.19;4978903;28;20405;-68
2021/06/01 08:57:39;;;;;;;2.87;2.60;;;;;;;19.13;34.13;98243.91;4981514;28;20602;-71
2021/06/01 09:00:09;;;;;;;4.13;2.77;;;;;;;19.18;33.67;98241.41;4979699;28;20209;-70
2021/06/01 09:02:36;;;;;;;4.17;3.17;;;;;;;19.21;33.75;98240.97;4980502;28;20232;-68
2021/06/01 09:05:07;;;;;;;3.00;2.80;;;;;;;19.11;33.39;98240.63;4980224;28;20270;-68
2021/06/01 09:07:48;;;;;;;4.07;2.67;;;;;;;19.20;32.99;98230.47;4979964;28;20546;-68
2021/06/01 09:10:27;;;;;;;2.60;2.47;;;;;;;19.28;33.52;98227.53;4972956;28;20232;-68
2021/06/01 09:13:06;;;;;;;2.83;2.63;;;;;;;19.35;31.71;98228.31;4980175;28;20212;-69
2021/06/01 09:15:49;;;;;;;9.60;2.93;;;;;;;19.35;33.08;98231.00;4981806;28;20209;-69
2021/06/01 09:21:08;;;;;;;3.30;3.00;;;;;;;19.35;32.94;98230.19;4979178;28;20228;-70
2021/06/01 09:23:50;;;;;;;4.47;2.80;;;;;;;19.48;34.13;98229.25;4982248;28;20225;-70
2021/06/01 09:27:03;;;;;;;3.23;2.40;;;;;;;19.62;33.84;98224.63;4980789;28;20695;-69
2021/06/01 09:29:33;;;;;;;5.20;2.80;;;;;;;19.73;32.54;98225.81;4978010;28;20208;-71
2021/06/01 09:32:06;;;;;;;3.30;3.10;;;;;;;19.70;31.53;98226.25;4979690;28;21261;-69
2021/06/01 09:34:43;;;;;;;2.63;2.40;;;;;;;19.86;31.88;98227.56;4981105;28;20225;-67
2021/06/01 09:37:24;;;;;;;3.40;2.70;;;;;;;19.93;32.21;98223.00;4981656;28;20701;-68
2021/06/01 09:40:16;;;;;;;2.77;2.60;;;;;;;19.89;32.01;98219.91;4976959;28;20217;-70
2021/06/01 09:42:45;;;;;;;3.07;2.87;;;;;;;19.84;31.00;98203.56;4980520;28;20222;-69
2021/06/01 09:45:16;;;;;;;2.83;2.73;;;;;;;19.79;33.08;98204.25;4979034;28;20261;-68
2021/06/01 09:47:45;;;;;;;3.53;2.60;;;;;;;19.95;30.73;98202.06;4980917;28;20201;-70
2021/06/01 09:50:34;;;;;;;3.83;2.90;;;;;;;19.94;31.24;98212.03;4979907;28;20315;-66
2021/06/01 09:53:04;;;;;;;2.63;2.53;;;;;;;20.06;32.24;98205.94;4977972;28;20292;-67
2021/06/01 09:55:39;;;;;;;3.03;2.73;;;;;;;20.04;31.05;98195.38;4981571;28;20496;-70
2021/06/01 09:58:12;;;;;;;2.60;2.40;;;;;;;19.89;31.59;98193.00;4980249;28;20289;-70
2021/06/01 10:00:42;;;;;;;2.80;2.50;;;;;;;19.99;32.69;98179.06;4982455;28;20221;-67
2021/06/01 10:03:15;;;;;;;3.23;3.03;;;;;;;20.22;33.61;98183.00;4984490;28;20229;-68
2021/06/01 10:05:44;;;;;;;3.17;2.87;;;;;;;20.32;32.87;98179.81;4984430;28;20205;-67
2021/06/01 10:08:16;;;;;;;2.93;2.63;;;;;;;20.54;32.39;98182.91;4984442;28;20217;-67
2021/06/01 10:10:51;;;;;;;2.33;2.23;;;;;;;20.50;32.42;98171.75;4985055;28;20437;-66
2021/06/01 10:13:19;;;;;;;2.87;2.67;;;;;;;20.64;32.61;98175.09;4984387;28;20201;-69
2021/06/01 10:15:49;;;;;;;2.43;2.23;;;;;;;20.61;31.66;98177.41;4984776;28;20446;-67
2021/06/01 10:18:19;;;;;;;2.70;2.60;;;;;;;20.72;32.00;98162.38;4983137;28;20221;-68
2021/06/01 10:20:47;;;;;;;3.10;2.90;;;;;;;20.51;30.93;98165.31;4983909;28;20210;-68
2021/06/01 10:23:19;;;;;;;4.30;2.63;;;;;;;20.68;32.50;98168.22;4984287;28;20226;-67
2021/06/01 10:25:47;;;;;;;3.33;2.73;;;;;;;20.78;31.58;98167.69;4983818;28;20229;-69
2021/06/01 10:28:24;;;;;;;2.87;2.67;;;;;;;20.80;30.27;98160.25;4984296;28;20594;-67
2021/06/01 10:30:53;;;;;;;3.10;2.90;;;;;;;21.02;31.40;98156.25;4983193;28;20816;-68
2021/06/01 10:33:21;;;;;;;3.10;2.53;;;;;;;21.22;30.21;98153.25;4983495;28;20229;-71
2021/06/01 10:36:01;;;;;;;2.43;2.33;;;;;;;21.21;29.94;98157.00;4985916;28;20217;-71
2021/06/01 10:44:37;;;;;;;3.90;2.60;;;;;;;22.14;29.13;98153.06;4980836;28;20692;-71
2021/06/01 10:53:03;;;;;;;3.80;2.33;;;;;;;22.98;25.12;98138.34;4969087;28;20202;-73
2021/06/01 10:56:01;;;;;;;5.17;2.90;;;;;;;24.45;25.10;98138.56;4984200;28;20429;-73
2021/06/01 10:59:03;;;;;;;2.57;2.10;;;;;;;24.76;24.44;98121.88;4983650;28;20213;-72
2021/06/01 11:04:19;;;;;;;2.20;2.10;;;;;;;24.45;23.86;98121.47;4983350;28;20230;-72
2021/06/01 11:09:54;;;;;;;2.30;2.10;;;;;;;24.75;23.03;98112.91;4978428;28;20209;-74
2021/06/01 11:12:42;;;;;;;2.97;2.47;;;;;;;24.24;24.77;98113.91;4983941;28;20209;-71
2021/06/01 11:15:32;;;;;;;3.60;2.97;;;;;;;23.44;25.47;98105.91;4991007;28;20235;-74
2021/06/01 11:18:17;;;;;;;2.47;2.27;;;;;;;23.09;25.97;98113.16;4990654;28;20217;-73
2021/06/01 11:21:10;;;;;;;2.40;2.00;;;;;;;24.16;22.98;98108.94;4993863;28;20198;-74
2021/06/01 11:33:09;;;;;;;2.77;2.37;;;;;;;24.69;24.03;98086.81;4990642;28;20217;-72
2021/06/01 11:35:38;;;;;;;2.33;2.07;;;;;;;24.49;24.90;98096.34;4995560;28;20201;-74
2021/06/01 11:38:11;;;;;;;3.17;2.47;;;;;;;23.94;25.63;98098.84;4991352;28;20674;-75
2021/06/01 11:40:55;;;;;;;2.83;2.47;;;;;;;24.41;24.42;98104.91;4992621;28;20505;-74
2021/06/01 11:43:22;;;;;;;1.70;1.67;;;;;;;24.55;23.91;98087.22;4988794;28;20229;-75
2021/06/01 11:45:55;;;;;;;3.53;2.37;;;;;;;24.11;25.50;98092.63;4993233;28;20210;-72
2021/06/01 11:48:29;;;;;;;3.73;2.33;;;;;;;24.20;24.47;98088.41;4987665;28;20502;-72
2021/06/01 11:51:13;;;;;;;3.07;2.63;;;;;;;23.53;24.92;98092.81;4988643;28;20684;-76
2021/06/01 11:54:02;;;;;;;3.27;2.30;;;;;;;23.65;24.91;98079.22;4989688;28;20632;-74
2021/06/01 11:56:37;;;;;;;2.60;2.40;;;;;;;24.16;23.32;98076.44;4985687;28;20204;-73
2021/06/01 12:04:54;;;;;;;2.30;2.20;;;;;;;25.34;22.47;98061.69;4952260;28;20232;-77
2021/06/01 12:13:29;;;;;;;3.10;2.90;;;;;;;25.27;22.87;98064.63;4982212;28;20214;-74
2021/06/01 12:18:45;;;;;;;2.53;2.30;;;;;;;25.71;21.71;98050.88;4984048;28;20452;-71
2021/06/01 12:21:19;;;;;;;2.83;2.67;;;;;;;26.32;22.96;98051.47;4981138;28;20225;-74
2021/06/01 12:23:49;;;;;;;2.87;2.07;;;;;;;26.15;22.31;98044.34;4983738;28;20241;-75
2021/06/01 12:26:21;;;;;;;5.43;2.40;;;;;;;25.97;22.10;98044.75;4981513;28;20206;-72
2021/06/01 12:32:06;;;;;;;2.77;2.47;;;;;;;26.68;21.31;98038.00;4981676;28;20209;-75
2021/06/01 12:34:47;;;;;;;5.07;2.37;;;;;;;26.03;21.19;98034.75;4981014;28;20243;-75
2021/06/01 13:12:31;;;;;;;2.63;2.53;;;;;;;28.65;18.69;98004.19;4983206;28;20672;-72
2021/06/01 13:40:13;;;;;;;4.07;2.20;;;;;;;29.03;20.43;97964.38;4980684;28;20206;-74
2021/06/01 13:48:42;;;;;;;3.43;2.47;;;;;;;30.39;17.29;97972.72;4980591;28;20296;-71
2021/06/01 13:51:26;;;;;;;2.43;1.80;;;;;;;29.17;19.21;97969.19;4979631;28;20213;-74